createdAt,value
2022-11-04T00:03:13.700Z,0.20
2022-11-04T00:08:15.897Z,0.20
2022-11-04T00:13:05.950Z,0.15
2022-11-04T00:17:58.513Z,0.10
2022-11-04T00:23:03.459Z,0.30
2022-11-04T00:28:05.796Z,0.35
2022-11-04T00:33:10.791Z,0.35
2022-11-04T00:38:00.558Z,0.40
2022-11-04T00:42:50.403Z,0.20
2022-11-04T00:47:40.117Z,0.20
2022-11-04T00:52:32.331Z,0.10
2022-11-04T00:57:21.973Z,0.10
2022-11-04T01:02:12.757Z,0.00
2022-11-04T01:07:02.874Z,0.03
2022-11-04T01:11:55.738Z,0.13
2022-11-04T01:16:45.798Z,0.05
2022-11-04T01:21:35.573Z,0.00
2022-11-04T01:26:26.673Z,0.00
2022-11-04T01:31:21.642Z,0.00
2022-11-04T01:36:12.578Z,0.00
2022-11-04T01:41:02.469Z,0.60
2022-11-04T01:45:55.029Z,1.20
2022-11-04T01:50:47.597Z,2.15
2022-11-04T01:55:40.282Z,4.22
2022-11-04T02:00:30.342Z,4.40
2022-11-04T02:05:20.455Z,6.28
2022-11-04T02:10:13.721Z,7.97
2022-11-04T02:15:03.513Z,8.93
2022-11-04T02:20:25.076Z,8.82
2022-11-04T02:25:38.913Z,10.27
2022-11-04T02:30:36.048Z,10.82
2022-11-04T02:35:32.720Z,8.65
2022-11-04T02:40:30.518Z,8.30
2022-11-04T02:45:25.287Z,8.27
2022-11-04T02:50:23.935Z,8.77
2022-11-04T02:55:20.381Z,9.45
2022-11-04T03:00:13.403Z,10.00
2022-11-04T03:05:06.281Z,11.43
2022-11-04T03:10:02.840Z,10.95
2022-11-04T03:14:59.526Z,10.88
2022-11-04T03:19:56.226Z,9.02
2022-11-04T03:24:48.652Z,8.13
2022-11-04T03:29:48.777Z,7.07
2022-11-04T03:34:40.127Z,6.65
2022-11-04T03:39:30.160Z,6.13
2022-11-04T03:44:19.936Z,5.63
2022-11-04T03:49:15.075Z,5.30
2022-11-04T03:54:04.776Z,5.90
2022-11-04T03:59:05.462Z,5.50
2022-11-04T04:04:02.384Z,5.95
2022-11-04T04:08:58.358Z,5.45
2022-11-04T04:13:56.250Z,4.97
2022-11-04T04:18:54.186Z,4.67
2022-11-04T04:24:02.929Z,5.10
2022-11-04T04:28:57.357Z,4.93
2022-11-04T04:33:47.251Z,5.13
2022-11-04T04:38:52.038Z,5.50
2022-11-04T04:43:57.986Z,6.00
2022-11-04T04:48:50.218Z,5.43
2022-11-04T04:53:39.800Z,6.03
2022-11-04T04:58:29.692Z,5.55
2022-11-04T05:03:19.390Z,5.68
2022-11-04T05:08:12.566Z,5.57
2022-11-04T05:13:15.488Z,6.00
2022-11-04T05:18:05.699Z,5.72
2022-11-04T05:22:56.874Z,5.35
2022-11-04T05:27:49.305Z,5.93
2022-11-04T05:32:38.978Z,6.22
2022-11-04T05:37:28.924Z,6.38
2022-11-04T05:42:18.625Z,6.13
2022-11-04T05:47:10.857Z,6.13
2022-11-04T05:52:00.673Z,6.03
2022-11-04T05:56:50.332Z,6.03
2022-11-04T06:01:41.818Z,5.82
2022-11-04T06:06:36.401Z,5.80
2022-11-04T06:11:27.229Z,6.20
2022-11-04T06:16:16.820Z,5.72
2022-11-04T06:21:14.053Z,5.80
2022-11-04T06:26:06.730Z,6.07
2022-11-04T06:30:56.619Z,6.43
2022-11-04T06:35:46.276Z,6.15
2022-11-04T06:40:35.921Z,6.65
2022-11-04T06:45:28.293Z,6.88
2022-11-04T06:50:18.568Z,7.53
2022-11-04T06:55:09.881Z,6.70
2022-11-04T06:59:59.747Z,6.95
2022-11-04T07:04:52.078Z,6.35
2022-11-04T07:09:42.164Z,6.40
2022-11-04T07:14:31.850Z,6.28
2022-11-04T07:19:21.640Z,6.60
2022-11-04T07:24:14.379Z,7.97
2022-11-04T07:29:06.629Z,7.72
2022-11-04T07:33:56.814Z,7.07
2022-11-04T07:38:56.553Z,7.40
2022-11-04T07:43:51.780Z,7.03
2022-11-04T07:48:41.901Z,7.10
2022-11-04T07:53:32.853Z,6.20
2022-11-04T07:58:23.112Z,6.47
2022-11-04T08:03:18.331Z,6.10
2022-11-04T08:08:08.425Z,5.55
2022-11-04T08:12:58.324Z,4.45
2022-11-04T08:17:47.978Z,4.90
2022-11-04T08:22:40.475Z,5.38
2022-11-04T08:27:30.354Z,5.10
2022-11-04T08:32:20.263Z,5.00
2022-11-04T08:37:10.124Z,5.50
2022-11-04T08:42:06.763Z,5.27
2022-11-04T08:46:56.644Z,5.82
2022-11-04T08:51:49.691Z,5.10
2022-11-04T08:56:42.152Z,5.18
2022-11-04T09:01:36.388Z,5.93
2022-11-04T09:06:29.177Z,6.50
2022-11-04T09:11:19.985Z,5.18
2022-11-04T09:16:11.858Z,5.93
2022-11-04T09:21:06.510Z,5.43
2022-11-04T09:25:57.356Z,4.80
2022-11-04T09:30:47.158Z,4.93
2022-11-04T09:35:37.150Z,4.70
2022-11-04T09:40:29.773Z,4.93
2022-11-04T09:45:23.386Z,5.10
2022-11-04T09:50:23.659Z,5.10
2022-11-04T09:55:27.608Z,5.00
2022-11-04T10:00:20.888Z,6.05
2022-11-04T10:05:27.705Z,6.47
2022-11-04T10:10:26.069Z,5.47
2022-11-04T10:15:46.151Z,6.60
2022-11-04T10:20:48.748Z,7.18
2022-11-04T10:25:48.086Z,4.95
2022-11-04T10:30:42.619Z,5.35
2022-11-04T10:35:37.282Z,5.63
2022-11-04T10:40:32.309Z,5.97
2022-11-04T10:45:25.807Z,6.13
2022-11-04T10:50:44.729Z,4.65
2022-11-04T10:55:41.331Z,4.20
2022-11-04T11:00:42.386Z,5.07
2022-11-04T11:05:32.247Z,4.40
2022-11-04T11:10:27.814Z,4.63
2022-11-04T11:15:30.332Z,3.70
2022-11-04T11:20:25.002Z,4.38
2022-11-04T11:25:28.271Z,4.28
2022-11-04T11:30:26.814Z,4.70
2022-11-04T11:35:20.372Z,4.07
2022-11-04T11:40:32.926Z,4.82
2022-11-04T11:45:26.629Z,4.20
2022-11-04T11:50:19.524Z,3.37
2022-11-04T11:55:18.417Z,3.70
2022-11-04T12:10:52.286Z,2.60
2022-11-04T12:15:59.223Z,2.97
2022-11-04T12:20:57.740Z,2.70
2022-11-04T12:26:00.991Z,2.13
2022-11-04T12:31:08.998Z,2.13
2022-11-04T12:36:24.238Z,2.08
2022-11-04T12:46:40.647Z,0.93
2022-11-04T12:51:42.007Z,0.55
2022-11-04T12:56:40.934Z,0.25
2022-11-04T13:01:37.880Z,0.40
2022-11-04T13:06:37.721Z,0.40
2022-11-04T13:11:32.690Z,0.50
2022-11-04T13:16:22.628Z,0.20
2022-11-04T13:21:16.660Z,0.20
2022-11-04T13:26:14.365Z,0.20
2022-11-04T13:31:12.288Z,0.10
2022-11-04T13:36:08.155Z,0.20
2022-11-04T13:41:11.768Z,0.10
2022-11-04T13:46:06.137Z,0.10
2022-11-04T13:51:02.499Z,0.10
2022-11-04T13:55:53.506Z,0.10
2022-11-04T14:00:43.526Z,0.10
2022-11-04T14:06:14.526Z,0.10
2022-11-04T14:11:10.390Z,0.08
2022-11-04T14:16:07.715Z,0.10
2022-11-04T14:21:10.377Z,0.10
2022-11-04T14:26:10.830Z,0.00
2022-11-04T14:31:02.720Z,0.00
2022-11-04T14:35:53.759Z,0.10
2022-11-04T14:40:53.525Z,0.10
2022-11-04T14:45:46.300Z,0.20
2022-11-04T14:50:37.966Z,0.10
2022-11-04T14:55:30.144Z,0.10
2022-11-04T15:00:34.721Z,0.20
2022-11-04T15:05:33.570Z,0.15
2022-11-04T15:10:26.244Z,0.20
2022-11-04T15:15:36.266Z,0.20
2022-11-04T15:20:30.604Z,0.30
2022-11-04T15:25:22.001Z,0.35
2022-11-04T15:30:23.262Z,0.30
2022-11-04T15:35:15.844Z,0.20
2022-11-04T15:40:09.976Z,0.20
2022-11-04T15:45:00.176Z,0.30
2022-11-04T15:49:51.992Z,0.20
2022-11-04T15:54:43.110Z,0.20
2022-11-04T15:59:37.778Z,0.30
2022-11-04T16:04:30.362Z,0.30
2022-11-04T16:09:25.484Z,0.30
2022-11-04T16:14:27.870Z,0.40
2022-11-04T16:19:30.977Z,0.50
2022-11-04T16:24:28.491Z,0.50
2022-11-04T16:29:24.136Z,0.90
2022-11-04T16:34:16.290Z,1.08
2022-11-04T16:39:09.455Z,1.10
2022-11-04T16:43:59.590Z,1.15
2022-11-04T16:48:49.523Z,1.02
2022-11-04T16:53:41.748Z,1.40
2022-11-04T16:58:34.378Z,2.08
2022-11-04T17:03:24.596Z,4.53
2022-11-04T17:08:15.600Z,3.22
2022-11-04T17:13:05.234Z,1.65
2022-11-04T17:17:57.568Z,7.85
2022-11-04T17:22:48.203Z,8.25
2022-11-04T17:27:38.882Z,11.98
2022-11-04T17:32:28.585Z,6.93
2022-11-04T17:37:21.073Z,5.25
2022-11-04T17:42:23.243Z,2.47
2022-11-04T17:47:12.905Z,3.08
2022-11-04T17:52:02.731Z,2.53
2022-11-04T17:56:55.274Z,2.67
2022-11-04T18:01:46.256Z,2.80
2022-11-04T18:06:39.699Z,2.20
2022-11-04T18:11:44.803Z,3.17
2022-11-04T18:16:37.153Z,2.78
2022-11-04T18:21:26.840Z,1.40
2022-11-04T18:26:18.829Z,0.80
2022-11-04T18:31:10.956Z,0.70
2022-11-04T18:36:05.744Z,0.80
2022-11-04T18:40:57.425Z,0.70
2022-11-04T18:45:47.050Z,4.85
2022-11-04T18:50:37.051Z,24.47
2022-11-04T18:55:29.543Z,43.83
2022-11-04T19:00:19.744Z,31.63
2022-11-04T19:05:09.972Z,19.65
2022-11-04T19:09:59.747Z,8.93
2022-11-04T19:14:52.456Z,3.57
2022-11-04T19:19:43.965Z,3.20
2022-11-04T19:24:34.011Z,9.93
2022-11-04T19:29:23.715Z,9.00
2022-11-04T19:34:15.955Z,8.30
2022-11-04T19:39:07.225Z,8.93
2022-11-04T19:43:56.814Z,23.77
2022-11-04T19:48:46.707Z,31.03
2022-11-04T19:53:39.292Z,32.00
2022-11-04T19:58:29.166Z,13.97
2022-11-04T20:03:18.881Z,10.50
2022-11-04T20:08:09.493Z,5.20
2022-11-04T20:13:14.315Z,2.72
2022-11-04T20:18:05.101Z,1.30
2022-11-04T20:22:54.752Z,0.50
2022-11-04T20:27:44.356Z,0.50
2022-11-04T20:32:37.279Z,0.30
2022-11-04T20:37:27.866Z,0.20
2022-11-04T20:42:17.650Z,0.23
2022-11-04T20:47:07.314Z,0.20
2022-11-04T20:51:59.589Z,0.30
2022-11-04T20:56:49.565Z,0.30
2022-11-04T21:01:41.746Z,0.30
2022-11-04T21:06:32.203Z,0.20
2022-11-04T21:11:30.390Z,0.10
2022-11-04T21:16:25.290Z,0.20
2022-11-04T21:21:18.124Z,0.30
